Time;durP1;ratioP1;P1;durP2;ratioP2;P2;SDS_P1;SDS_P2;PMS_P1;PMS_P2;Temp;Humidity;BMP_temperature;BMP_pressure;BME280_temperature;BME280_humidity;BME280_pressure;Samples;Min_cycle;Max_cycle;Signal;HPM_P1;HPM_P2
2022/01/11 00:02:22;;;;;;;2.93;1.87;;;17.40;65.50;;;;;;10457506;28;20300;-67
2022/01/11 00:07:44;;;;;;;2.17;1.87;;;17.40;65.40;;;;;;10454366;28;20235;-66
2022/01/11 00:13:08;;;;;;;2.20;1.90;;;17.40;65.50;;;;;;10457935;28;20221;-66
2022/01/11 00:18:30;;;;;;;1.97;1.60;;;17.40;65.50;;;;;;10457557;28;20189;-67
2022/01/11 00:29:35;;;;;;;3.50;2.13;;;17.40;65.40;;;;;;10447197;28;20221;-66
2022/01/11 00:34:57;;;;;;;2.13;1.70;;;17.40;65.40;;;;;;10456615;28;20221;-67
2022/01/11 00:40:19;;;;;;;1.67;1.40;;;17.40;65.50;;;;;;10454649;28;20198;-67
2022/01/11 00:45:43;;;;;;;2.43;1.87;;;17.40;65.40;;;;;;10435789;28;20247;-67
2022/01/11 00:51:05;;;;;;;2.43;1.60;;;17.40;65.40;;;;;;10456015;28;20217;-67
2022/01/11 00:56:27;;;;;;;2.37;1.77;;;17.40;65.40;;;;;;10456686;28;20217;-66
2022/01/11 01:01:51;;;;;;;2.10;1.60;;;17.40;65.30;;;;;;10419393;28;20194;-66
2022/01/11 01:07:13;;;;;;;1.87;1.63;;;17.40;65.40;;;;;;10438832;28;20719;-67
2022/01/11 01:12:36;;;;;;;2.37;1.70;;;17.40;65.40;;;;;;10452189;28;20228;-66
2022/01/11 01:17:59;;;;;;;2.87;1.83;;;17.40;65.90;;;;;;10455404;28;20197;-66
2022/01/11 01:23:22;;;;;;;3.43;1.87;;;17.40;65.30;;;;;;10454539;28;20239;-67
2022/01/11 01:28:45;;;;;;;2.00;1.80;;;17.40;65.30;;;;;;10449290;28;20206;-66
2022/01/11 01:34:08;;;;;;;1.70;1.60;;;17.40;65.30;;;;;;10432242;28;20347;-66
2022/01/11 01:39:31;;;;;;;2.83;1.70;;;17.40;65.30;;;;;;10452006;28;20189;-66
2022/01/11 01:44:53;;;;;;;1.60;1.50;;;17.40;65.30;;;;;;10433430;28;20229;-67
2022/01/11 01:50:16;;;;;;;3.47;1.90;;;17.40;65.30;;;;;;10435722;28;20221;-67
2022/01/11 01:55:40;;;;;;;2.10;1.50;;;17.40;65.30;;;;;;10440707;28;20241;-67
2022/01/11 02:01:04;;;;;;;2.47;1.53;;;17.40;65.20;;;;;;10449919;28;20197;-66
2022/01/11 02:06:28;;;;;;;2.40;1.87;;;17.40;65.20;;;;;;10413953;28;20244;-66
2022/01/11 02:11:50;;;;;;;2.50;1.97;;;17.40;65.20;;;;;;10411673;28;20198;-65
2022/01/11 02:17:12;;;;;;;2.43;1.70;;;17.40;65.20;;;;;;10428439;28;20194;-67
2022/01/11 02:22:35;;;;;;;1.97;1.40;;;17.40;65.20;;;;;;10439702;28;20217;-67
2022/01/11 02:27:58;;;;;;;1.90;1.70;;;17.40;65.20;;;;;;10453108;28;20217;-66
2022/01/11 02:33:32;;;;;;;2.03;1.83;;;17.40;65.30;;;;;;10429127;28;20228;-66
2022/01/11 02:38:57;;;;;;;1.87;1.67;;;17.40;65.10;;;;;;10451678;28;20225;-67
2022/01/11 02:49:22;;;;;;;2.70;1.90;;;17.40;65.20;;;;;;10415685;28;21074;-66
2022/01/11 02:54:46;;;;;;;2.23;1.70;;;17.40;65.20;;;;;;10411028;28;20827;-69
2022/01/11 03:00:11;;;;;;;2.33;1.63;;;17.40;65.20;;;;;;10400756;28;20190;-69
2022/01/11 03:05:33;;;;;;;2.33;2.13;;;17.40;65.20;;;;;;10370409;28;20222;-69
2022/01/11 03:10:57;;;;;;;2.40;1.70;;;17.40;65.20;;;;;;10371992;28;20686;-69
2022/01/11 03:16:20;;;;;;;2.00;1.70;;;17.40;65.20;;;;;;10392308;28;20218;-69
2022/01/11 03:21:42;;;;;;;1.97;1.73;;;17.40;65.10;;;;;;10409892;28;20201;-69
2022/01/11 03:27:07;;;;;;;2.53;1.80;;;17.40;65.10;;;;;;10407030;28;20617;-69
2022/01/11 03:32:29;;;;;;;2.20;1.83;;;17.40;65.20;;;;;;10391448;28;20228;-68
2022/01/11 03:37:52;;;;;;;2.60;1.80;;;17.40;65.10;;;;;;10382157;28;20211;-68
2022/01/11 03:43:16;;;;;;;2.33;1.83;;;17.40;65.10;;;;;;10385059;28;20202;-70
2022/01/11 03:48:38;;;;;;;2.20;1.90;;;17.40;65.10;;;;;;10446580;28;20307;-68
2022/01/11 03:54:07;;;;;;;2.10;1.77;;;17.30;65.10;;;;;;10409205;28;20209;-68
2022/01/11 03:59:31;;;;;;;2.10;1.80;;;17.30;65.10;;;;;;10377191;28;20303;-68
2022/01/11 04:04:54;;;;;;;2.53;1.67;;;17.40;65.10;;;;;;10384588;28;20214;-69
2022/01/11 04:10:16;;;;;;;1.90;1.50;;;17.40;65.10;;;;;;10394860;28;20297;-69
2022/01/11 04:15:39;;;;;;;2.07;1.73;;;17.40;65.10;;;;;;10384228;28;20214;-68
2022/01/11 04:21:01;;;;;;;2.77;2.10;;;17.30;65.00;;;;;;10404624;28;20205;-68
2022/01/11 04:26:24;;;;;;;2.67;1.90;;;17.30;65.00;;;;;;10420270;28;20242;-70
2022/01/11 04:31:47;;;;;;;2.27;1.63;;;17.30;65.00;;;;;;10370629;28;20740;-68
2022/01/11 04:37:09;;;;;;;2.07;1.63;;;17.30;65.00;;;;;;10394863;28;20224;-68
2022/01/11 04:42:32;;;;;;;3.00;1.97;;;17.30;65.00;;;;;;10416838;28;20198;-68
2022/01/11 04:47:56;;;;;;;1.70;1.50;;;17.30;65.00;;;;;;10416459;28;20225;-69
2022/01/11 04:53:18;;;;;;;2.60;1.90;;;17.40;65.00;;;;;;10439965;28;20616;-67
2022/01/11 04:58:41;;;;;;;3.40;1.67;;;17.40;65.70;;;;;;10405963;28;20214;-68
2022/01/11 05:04:05;;;;;;;1.97;1.77;;;17.40;65.00;;;;;;10404524;28;20216;-69
2022/01/11 05:09:27;;;;;;;2.73;1.50;;;17.50;65.10;;;;;;10414400;28;20213;-68
2022/01/11 05:14:49;;;;;;;3.13;1.40;;;17.40;65.00;;;;;;10417957;28;20222;-68
2022/01/11 05:20:14;;;;;;;2.87;1.87;;;17.40;65.00;;;;;;10417859;28;20190;-69
2022/01/11 05:25:36;;;;;;;2.17;1.43;;;17.50;65.00;;;;;;10425488;28;20213;-69
2022/01/11 05:30:59;;;;;;;1.80;1.40;;;17.40;65.00;;;;;;10414168;28;20596;-68
2022/01/11 05:36:22;;;;;;;1.97;1.50;;;17.50;65.00;;;;;;10402522;28;20681;-68
2022/01/11 05:41:44;;;;;;;2.03;1.40;;;17.50;65.00;;;;;;10412656;28;20565;-68
2022/01/11 05:47:06;;;;;;;3.10;1.90;;;17.50;65.00;;;;;;10412794;28;20229;-69
2022/01/11 05:52:30;;;;;;;1.83;1.43;;;17.50;65.00;;;;;;10440421;28;20678;-68
2022/01/11 05:57:52;;;;;;;2.20;1.43;;;17.50;65.00;;;;;;10379611;28;20836;-68
2022/01/11 06:03:14;;;;;;;3.53;1.50;;;17.50;64.90;;;;;;10403122;28;20201;-68
2022/01/11 06:08:38;;;;;;;4.40;2.00;;;17.50;65.00;;;;;;10413352;28;20217;-69
2022/01/11 06:14:00;;;;;;;3.33;1.93;;;17.50;64.80;;;;;;10412313;28;20186;-68
2022/01/11 06:19:22;;;;;;;2.00;1.77;;;17.50;64.80;;;;;;10438230;28;20194;-68
2022/01/11 06:24:46;;;;;;;2.57;1.80;;;17.40;64.70;;;;;;10418520;28;20284;-68
2022/01/11 06:30:10;;;;;;;2.90;1.37;;;17.50;64.80;;;;;;10423835;28;20220;-68
2022/01/11 06:35:32;;;;;;;2.53;1.77;;;17.40;64.70;;;;;;10412430;28;20696;-69
2022/01/11 06:40:56;;;;;;;2.43;1.90;;;17.40;64.80;;;;;;10411249;28;20564;-68
2022/01/11 06:46:18;;;;;;;2.50;1.83;;;17.50;64.80;;;;;;10379116;28;20233;-68
2022/01/11 06:51:40;;;;;;;1.80;1.57;;;17.50;64.80;;;;;;10371192;28;20720;-68
2022/01/11 06:57:04;;;;;;;2.83;1.83;;;17.40;64.80;;;;;;10371752;28;20225;-68
2022/01/11 07:02:27;;;;;;;2.80;1.80;;;17.40;64.90;;;;;;10416532;28;20193;-69
2022/01/11 07:07:49;;;;;;;4.20;2.30;;;17.40;64.90;;;;;;10417012;28;20574;-68
2022/01/11 07:13:13;;;;;;;3.07;2.00;;;17.40;64.60;;;;;;10406727;28;20627;-69
2022/01/11 07:18:35;;;;;;;3.27;2.10;;;17.40;64.60;;;;;;10404045;28;20224;-68
2022/01/11 07:23:57;;;;;;;2.43;1.70;;;17.40;64.80;;;;;;10398713;28;20205;-69
2022/01/11 07:29:21;;;;;;;2.60;1.90;;;17.40;64.80;;;;;;10400842;28;20720;-68
2022/01/11 07:34:44;;;;;;;2.93;2.00;;;17.40;64.90;;;;;;10395960;28;20230;-68
2022/01/11 07:40:07;;;;;;;2.53;1.60;;;17.40;65.00;;;;;;10408355;28;20672;-68
2022/01/11 07:45:31;;;;;;;2.47;1.83;;;17.40;65.50;;;;;;10407775;28;20225;-67
2022/01/11 07:50:53;;;;;;;2.53;1.80;;;17.40;65.30;;;;;;10419777;28;20705;-67
2022/01/11 07:56:16;;;;;;;2.53;1.60;;;17.40;65.30;;;;;;10413566;28;20228;-69
2022/01/11 08:01:40;;;;;;;2.63;1.90;;;17.40;65.20;;;;;;10423219;28;20202;-67
2022/01/11 08:07:03;;;;;;;1.77;1.67;;;17.40;65.30;;;;;;10405271;28;20225;-68
2022/01/11 08:12:25;;;;;;;1.87;1.60;;;17.40;65.30;;;;;;10426794;28;20228;-67
2022/01/11 08:17:49;;;;;;;2.13;1.40;;;17.40;65.10;;;;;;10417221;28;20218;-69
2022/01/11 08:23:12;;;;;;;2.50;1.80;;;17.40;65.10;;;;;;10411464;28;20202;-68
2022/01/11 08:28:34;;;;;;;2.00;1.40;;;17.40;65.10;;;;;;10424794;28;20236;-69
2022/01/11 08:33:58;;;;;;;2.80;1.53;;;17.40;65.30;;;;;;10415647;28;20209;-67
2022/01/11 08:39:20;;;;;;;3.20;1.70;;;17.40;65.20;;;;;;10414968;28;20673;-67
2022/01/11 08:44:45;;;;;;;3.83;1.80;;;17.40;65.20;;;;;;10405053;28;20741;-67
2022/01/11 08:50:11;;;;;;;3.47;1.60;;;17.40;65.30;;;;;;10399296;28;20206;-68
2022/01/11 08:55:33;;;;;;;2.47;1.50;;;17.40;65.40;;;;;;10434796;28;20730;-66
2022/01/11 09:00:56;;;;;;;2.27;1.70;;;17.40;65.40;;;;;;10456270;28;20197;-68
2022/01/11 09:06:19;;;;;;;1.80;1.57;;;17.40;65.50;;;;;;10449048;28;20225;-67
2022/01/11 09:11:42;;;;;;;1.90;1.47;;;17.40;65.50;;;;;;10415618;28;20280;-67
2022/01/11 09:17:04;;;;;;;2.27;1.40;;;17.40;65.30;;;;;;10386998;28;20218;-68
2022/01/11 09:22:28;;;;;;;1.37;1.10;;;17.40;65.30;;;;;;10375164;28;20570;-68
2022/01/11 09:27:50;;;;;;;2.43;1.80;;;17.40;65.30;;;;;;10409370;28;20233;-69
2022/01/11 09:33:12;;;;;;;3.40;1.53;;;17.40;65.40;;;;;;10415665;28;20186;-68
2022/01/11 09:38:36;;;;;;;2.50;1.57;;;17.40;65.40;;;;;;10415304;28;20221;-68
2022/01/11 09:44:00;;;;;;;1.77;1.63;;;17.40;65.40;;;;;;10413640;28;20573;-67
2022/01/11 09:49:22;;;;;;;2.67;1.50;;;17.40;65.50;;;;;;10429539;28;20566;-68
2022/01/11 09:54:48;;;;;;;2.50;1.40;;;17.40;65.40;;;;;;10403594;28;20241;-68
2022/01/11 10:00:13;;;;;;;3.10;1.30;;;17.40;65.00;;;;;;10411983;28;20213;-69
2022/01/11 10:05:37;;;;;;;2.10;1.70;;;17.40;65.00;;;;;;10444896;28;20288;-67
2022/01/11 10:11:00;;;;;;;1.97;1.40;;;17.40;64.80;;;;;;10412921;28;20222;-68
2022/01/11 10:16:25;;;;;;;4.30;1.70;;;17.40;64.80;;;;;;10439327;28;20228;-69
2022/01/11 10:21:47;;;;;;;1.80;1.33;;;17.40;64.80;;;;;;10436213;28;20196;-68
2022/01/11 10:27:14;;;;;;;3.07;1.63;;;17.40;64.80;;;;;;10439162;28;20209;-68
2022/01/11 10:32:39;;;;;;;1.77;1.40;;;17.40;64.80;;;;;;10427238;28;20210;-69
2022/01/11 10:38:03;;;;;;;2.77;1.57;;;17.40;64.90;;;;;;10451094;28;20217;-68
2022/01/11 10:43:26;;;;;;;1.60;1.40;;;17.40;64.80;;;;;;10452761;28;20275;-66
2022/01/11 10:48:48;;;;;;;2.90;1.23;;;17.40;65.10;;;;;;10427358;28;20224;-66
2022/01/11 10:54:11;;;;;;;1.17;1.00;;;17.40;65.80;;;;;;10451641;28;20201;-66
2022/01/11 10:59:35;;;;;;;1.73;1.17;;;17.40;66.10;;;;;;10441652;28;20683;-66
2022/01/11 11:04:58;;;;;;;1.30;1.20;;;17.50;65.80;;;;;;10447472;28;20213;-66
2022/01/11 11:10:30;;;;;;;1.73;1.37;;;17.50;65.80;;;;;;10411039;28;20588;-66
2022/01/11 11:15:55;;;;;;;1.70;1.07;;;17.50;65.70;;;;;;10411166;28;20218;-66
2022/01/11 11:21:21;;;;;;;2.43;1.30;;;17.50;65.70;;;;;;10370062;28;20186;-67
2022/01/11 11:26:47;;;;;;;1.80;1.20;;;17.50;65.60;;;;;;10405629;28;20209;-66
2022/01/11 11:32:11;;;;;;;1.57;1.10;;;17.50;66.20;;;;;;10435381;28;20214;-66
2022/01/11 11:37:37;;;;;;;1.03;0.90;;;17.50;65.60;;;;;;10410637;28;20740;-65
2022/01/11 11:43:02;;;;;;;1.70;1.10;;;17.50;65.50;;;;;;10410705;28;20194;-67
2022/01/11 11:48:27;;;;;;;2.43;1.20;;;17.50;65.50;;;;;;10385426;28;20221;-66
2022/01/11 11:53:49;;;;;;;1.80;1.30;;;17.50;65.50;;;;;;10418126;28;20202;-67
2022/01/11 11:59:12;;;;;;;1.63;1.13;;;17.50;65.40;;;;;;10437299;28;20197;-66
2022/01/11 12:04:55;;;;;;;1.93;1.03;;;17.50;65.40;;;;;;10390747;28;20233;-67
2022/01/11 12:10:28;;;;;;;2.03;1.20;;;17.50;65.10;;;;;;10407871;28;20699;-66
2022/01/11 12:15:50;;;;;;;3.23;1.30;;;17.50;65.30;;;;;;10410104;28;20213;-68
2022/01/11 12:21:13;;;;;;;1.40;1.20;;;17.50;65.30;;;;;;10409361;28;20190;-67
2022/01/11 12:26:37;;;;;;;1.57;1.23;;;17.50;65.30;;;;;;10418261;28;20597;-67
2022/01/11 12:32:01;;;;;;;2.13;1.13;;;17.50;65.30;;;;;;10440826;28;20589;-66
2022/01/11 12:37:29;;;;;;;2.03;1.10;;;17.50;65.20;;;;;;10410960;28;20213;-66
2022/01/11 12:42:59;;;;;;;2.03;1.40;;;17.50;65.20;;;;;;10438562;28;20197;-67
2022/01/11 12:48:57;;;;;;;1.63;1.10;;;17.50;65.10;;;;;;10426117;28;20701;-68
2022/01/11 12:54:23;;;;;;;1.50;1.20;;;17.50;65.00;;;;;;10399130;28;20688;-66
2022/01/11 12:59:48;;;;;;;1.73;1.37;;;17.50;65.10;;;;;;10386315;28;20182;-66
2022/01/11 13:05:13;;;;;;;1.77;1.30;;;17.50;65.10;;;;;;10396340;28;20213;-67
2022/01/11 13:10:39;;;;;;;1.80;1.27;;;17.50;65.00;;;;;;10410985;28;20706;-66
2022/01/11 13:16:02;;;;;;;2.37;1.47;;;17.50;65.00;;;;;;10404588;28;20214;-67
2022/01/11 13:21:24;;;;;;;2.50;1.50;;;17.50;65.00;;;;;;10398763;28;20204;-66
2022/01/11 13:26:49;;;;;;;2.97;1.40;;;17.50;64.90;;;;;;10414367;28;20225;-66
2022/01/11 13:32:11;;;;;;;3.07;1.27;;;17.50;64.90;;;;;;10408161;28;20221;-67
2022/01/11 13:37:34;;;;;;;1.83;1.27;;;17.60;65.00;;;;;;10417085;28;20225;-67
2022/01/11 13:43:02;;;;;;;2.13;1.67;;;17.60;65.10;;;;;;10444577;28;20576;-66
2022/01/11 13:48:24;;;;;;;3.40;1.60;;;17.50;65.00;;;;;;10385299;28;20229;-66
2022/01/11 13:53:47;;;;;;;2.77;1.50;;;17.50;65.00;;;;;;10425003;28;20214;-66
2022/01/11 13:59:13;;;;;;;2.00;1.50;;;17.50;65.00;;;;;;10413959;28;20273;-66
2022/01/11 14:04:38;;;;;;;1.87;1.33;;;17.60;65.00;;;;;;10407341;28;20635;-68
2022/01/11 14:10:04;;;;;;;2.70;1.30;;;17.60;65.00;;;;;;10404399;28;20210;-66
2022/01/11 14:15:29;;;;;;;1.80;1.33;;;17.50;64.90;;;;;;10371880;28;20832;-66
2022/01/11 14:21:05;;;;;;;1.80;1.17;;;17.50;64.90;;;;;;10371867;28;20573;-66
2022/01/11 14:26:37;;;;;;;2.80;1.83;;;17.60;65.40;;;;;;10411016;28;20275;-66
2022/01/11 14:32:06;;;;;;;3.43;1.80;;;17.60;64.90;;;;;;10452263;28;20221;-67
2022/01/11 14:37:30;;;;;;;3.87;1.50;;;17.60;64.90;;;;;;10448082;28;20716;-67
2022/01/11 14:42:53;;;;;;;2.37;1.60;;;17.60;65.00;;;;;;10403915;28;20196;-67
2022/01/11 14:48:28;;;;;;;1.83;1.43;;;17.50;64.90;;;;;;10411513;28;20221;-66
2022/01/11 14:53:53;;;;;;;2.13;1.70;;;17.60;64.80;;;;;;10412294;28;20228;-67
2022/01/11 14:59:17;;;;;;;3.07;2.03;;;17.50;64.90;;;;;;10412277;28;20206;-67
2022/01/11 15:04:43;;;;;;;2.87;1.60;;;17.50;64.90;;;;;;10410634;28;20224;-67
2022/01/11 15:10:06;;;;;;;2.40;1.90;;;17.60;64.90;;;;;;10412804;28;20214;-66
2022/01/11 15:15:29;;;;;;;3.07;2.10;;;17.60;65.00;;;;;;10409304;28;20218;-66
2022/01/11 15:20:52;;;;;;;2.77;2.10;;;17.60;65.40;;;;;;10442308;28;20197;-66
2022/01/11 15:26:17;;;;;;;3.90;2.17;;;17.50;65.00;;;;;;10451225;28;20389;-66
2022/01/11 15:31:40;;;;;;;3.53;2.30;;;17.50;64.40;;;;;;10450575;28;20594;-66
2022/01/11 15:37:04;;;;;;;2.77;1.87;;;17.50;64.50;;;;;;10417984;28;20213;-66
2022/01/11 15:42:26;;;;;;;2.83;2.10;;;17.60;64.40;;;;;;10408537;28;20194;-67
2022/01/11 15:47:48;;;;;;;3.00;2.20;;;17.50;64.40;;;;;;10407227;28;20225;-67
2022/01/11 15:53:12;;;;;;;2.80;2.30;;;17.50;64.40;;;;;;10428288;28;20221;-67
2022/01/11 15:58:34;;;;;;;2.83;2.10;;;17.50;64.40;;;;;;10448159;28;20608;-67
2022/01/11 16:03:56;;;;;;;3.60;2.33;;;17.50;64.40;;;;;;10450629;28;20200;-66
2022/01/11 16:09:21;;;;;;;3.20;2.57;;;17.50;64.60;;;;;;10418379;28;20205;-66
2022/01/11 16:14:44;;;;;;;4.10;2.43;;;17.50;64.70;;;;;;10407675;28;20209;-66
2022/01/11 16:20:07;;;;;;;4.27;2.50;;;17.50;64.80;;;;;;10432136;28;20197;-67
2022/01/11 16:25:31;;;;;;;3.33;2.30;;;17.50;64.80;;;;;;10448881;28;20221;-66
2022/01/11 16:30:54;;;;;;;5.53;2.67;;;17.50;64.90;;;;;;10456266;28;20714;-66
2022/01/11 16:36:16;;;;;;;3.70;2.40;;;17.50;65.00;;;;;;10440437;28;20218;-67
2022/01/11 16:47:19;;;;;;;6.53;2.87;;;17.50;65.50;;;;;;10399624;28;20727;-67
2022/01/11 16:52:42;;;;;;;4.67;3.40;;;17.50;65.40;;;;;;10415574;28;20218;-66
2022/01/11 16:58:05;;;;;;;3.37;2.53;;;17.50;65.30;;;;;;10415774;28;20213;-66
2022/01/11 17:03:28;;;;;;;6.73;3.13;;;17.50;65.40;;;;;;10412622;28;20445;-68
2022/01/11 17:08:50;;;;;;;3.43;2.90;;;18.40;62.70;;;;;;10415690;28;20214;-69
2022/01/11 17:14:14;;;;;;;3.95;2.47;;;17.90;64.50;;;;;;10384521;28;20437;-67
2022/01/11 17:19:36;;;;;;;3.47;2.50;;;17.70;65.10;;;;;;10408167;28;20212;-68
2022/01/11 17:24:58;;;;;;;3.60;2.90;;;17.60;65.40;;;;;;10420543;28;20599;-68
2022/01/11 17:30:23;;;;;;;4.57;3.07;;;17.60;65.60;;;;;;10442618;28;20595;-68
2022/01/11 17:35:45;;;;;;;4.30;3.30;;;17.60;65.70;;;;;;10453034;28;20209;-68
2022/01/11 17:41:09;;;;;;;5.17;3.67;;;17.60;65.70;;;;;;10414886;28;20247;-68
2022/01/11 17:46:34;;;;;;;4.90;3.90;;;17.50;65.50;;;;;;10382531;28;20253;-68
2022/01/11 17:51:56;;;;;;;5.00;3.70;;;17.50;65.20;;;;;;10455016;28;20213;-69
2022/01/11 17:57:18;;;;;;;6.40;4.03;;;17.50;65.00;;;;;;10418596;28;20214;-69
2022/01/11 18:02:42;;;;;;;5.73;4.30;;;17.50;64.90;;;;;;10402756;28;20202;-69
2022/01/11 18:08:04;;;;;;;6.53;4.10;;;17.50;64.80;;;;;;10412142;28;20676;-66
2022/01/11 18:13:27;;;;;;;5.20;4.13;;;17.50;65.00;;;;;;10412232;28;20692;-68
2022/01/11 18:18:50;;;;;;;6.50;4.30;;;17.50;64.90;;;;;;10447993;28;20592;-68
2022/01/11 18:24:13;;;;;;;4.93;3.93;;;17.50;64.60;;;;;;10453470;28;20339;-66
2022/01/11 18:29:35;;;;;;;4.80;3.97;;;17.50;64.30;;;;;;10453382;28;20549;-67
2022/01/11 18:34:58;;;;;;;5.40;4.00;;;17.50;64.50;;;;;;10433785;28;20709;-67
2022/01/11 18:40:20;;;;;;;6.50;4.40;;;17.50;64.80;;;;;;10390185;28;20191;-67
2022/01/11 18:45:43;;;;;;;5.70;4.07;;;17.50;64.70;;;;;;10371367;28;20238;-68
2022/01/11 18:51:06;;;;;;;6.23;4.20;;;17.50;64.80;;;;;;10371028;28;20731;-68
2022/01/11 18:56:29;;;;;;;6.50;4.10;;;17.50;64.90;;;;;;10369972;28;20717;-67
2022/01/11 19:01:55;;;;;;;4.63;4.10;;;17.50;64.90;;;;;;10369463;28;20317;-67
2022/01/11 19:07:21;;;;;;;5.00;3.73;;;17.50;65.10;;;;;;10409679;28;20209;-67
2022/01/11 19:12:43;;;;;;;5.20;3.60;;;17.50;65.30;;;;;;10390683;28;20213;-67
2022/01/11 19:18:05;;;;;;;4.13;3.47;;;17.50;65.40;;;;;;10389715;28;20225;-67
2022/01/11 19:23:29;;;;;;;4.30;3.50;;;17.50;65.50;;;;;;10404829;28;20205;-68
2022/01/11 19:28:52;;;;;;;4.43;3.73;;;17.50;65.50;;;;;;10393379;28;20686;-68
2022/01/11 19:34:15;;;;;;;4.80;3.73;;;17.50;65.50;;;;;;10390741;28;20216;-67
2022/01/11 19:39:40;;;;;;;5.17;3.70;;;17.50;65.50;;;;;;10388172;28;20194;-67
2022/01/11 19:45:06;;;;;;;5.27;4.30;;;17.50;65.40;;;;;;10393731;28;20590;-67
2022/01/11 19:50:30;;;;;;;4.63;3.93;;;17.50;65.30;;;;;;10393145;28;20210;-67
2022/01/11 19:55:54;;;;;;;5.73;4.60;;;17.50;65.10;;;;;;10410746;28;20236;-67
2022/01/11 20:01:16;;;;;;;5.67;4.27;;;17.50;65.00;;;;;;10396559;28;20190;-68
2022/01/11 20:06:38;;;;;;;5.77;4.47;;;17.50;64.90;;;;;;10399435;28;20233;-67
2022/01/11 20:12:02;;;;;;;4.50;3.83;;;17.50;64.90;;;;;;10406763;28;20240;-67
2022/01/11 20:17:25;;;;;;;5.90;4.03;;;17.60;64.90;;;;;;10419622;28;20214;-67
2022/01/11 20:28:28;;;;;;;4.70;3.97;;;17.50;64.90;;;;;;10454824;28;20291;-67
2022/01/11 20:33:50;;;;;;;4.50;3.90;;;17.50;64.90;;;;;;10458121;28;20223;-67
2022/01/11 20:39:12;;;;;;;4.80;3.90;;;17.50;64.90;;;;;;10423227;28;20209;-67
2022/01/11 20:44:37;;;;;;;4.20;3.70;;;17.50;65.00;;;;;;10415128;28;20221;-67
2022/01/11 20:50:11;;;;;;;5.73;4.03;;;17.50;65.00;;;;;;10417412;28;20677;-66
2022/01/11 20:55:34;;;;;;;4.63;3.63;;;17.50;65.00;;;;;;10430074;28;20373;-67
2022/01/11 21:00:58;;;;;;;4.30;3.90;;;17.50;65.00;;;;;;10403552;28;20678;-68
2022/01/11 21:06:20;;;;;;;4.40;3.70;;;17.50;65.00;;;;;;10375752;28;20712;-67
2022/01/11 21:11:42;;;;;;;4.60;3.73;;;17.50;65.00;;;;;;10375888;28;20218;-67
2022/01/11 21:20:05;;;;;;;4.83;4.10;;;17.50;64.90;;;;;;10435486;28;20246;-67
2022/01/11 21:22:51;;;;;;;4.87;3.97;;;17.50;64.90;;;;;;10415496;28;20580;-67
2022/01/11 21:28:14;;;;;;;4.40;4.00;;;17.50;64.80;;;;;;10436834;28;20253;-67
2022/01/11 21:33:39;;;;;;;5.50;3.87;;;17.50;64.90;;;;;;10415388;28;20288;-68
2022/01/11 21:39:02;;;;;;;4.53;3.80;;;17.50;64.90;;;;;;10448178;28;20698;-68
2022/01/11 21:44:29;;;;;;;4.47;3.80;;;17.50;64.90;;;;;;10455479;28;20327;-67
2022/01/11 21:49:53;;;;;;;3.90;3.47;;;17.50;64.90;;;;;;10415264;28;20281;-68
2022/01/11 21:55:16;;;;;;;4.33;3.83;;;17.50;64.80;;;;;;10401282;28;20729;-67
2022/01/11 22:00:42;;;;;;;3.93;3.43;;;17.40;64.80;;;;;;10404066;28;20554;-67
2022/01/11 22:06:05;;;;;;;4.43;3.70;;;17.50;64.80;;;;;;10406184;28;20239;-69
2022/01/11 22:11:27;;;;;;;4.30;3.57;;;17.40;64.80;;;;;;10394428;28;20214;-67
2022/01/11 22:16:53;;;;;;;3.93;3.30;;;17.40;64.80;;;;;;10401645;28;20221;-68
2022/01/11 22:22:16;;;;;;;4.50;3.50;;;17.40;64.80;;;;;;10394218;28;20308;-67
2022/01/11 22:27:39;;;;;;;4.47;3.70;;;17.40;64.70;;;;;;10394677;28;20735;-67
2022/01/11 22:33:01;;;;;;;4.60;3.90;;;17.40;64.60;;;;;;10389768;28;20210;-67
2022/01/11 22:38:25;;;;;;;4.13;3.40;;;17.40;64.60;;;;;;10407828;28;20590;-67
2022/01/11 22:43:47;;;;;;;3.87;3.13;;;17.40;64.70;;;;;;10393632;28;20189;-67
2022/01/11 22:49:12;;;;;;;3.73;3.40;;;17.40;64.60;;;;;;10393819;28;20202;-67
2022/01/11 22:54:36;;;;;;;4.87;3.33;;;17.40;64.60;;;;;;10392557;28;20723;-66
2022/01/11 22:59:59;;;;;;;4.60;3.33;;;17.40;64.60;;;;;;10396433;28;20300;-68
2022/01/11 23:05:21;;;;;;;3.17;2.73;;;17.40;64.60;;;;;;10394875;28;20593;-67
2022/01/11 23:10:47;;;;;;;5.17;3.60;;;17.40;64.60;;;;;;10392423;28;20206;-67
2022/01/11 23:16:12;;;;;;;5.47;3.30;;;17.40;64.60;;;;;;10392449;28;20778;-67
2022/01/11 23:21:34;;;;;;;3.27;2.83;;;17.40;64.60;;;;;;10403290;28;20577;-68
2022/01/11 23:26:57;;;;;;;5.20;3.53;;;17.40;64.50;;;;;;10395933;28;20711;-67
2022/01/11 23:32:22;;;;;;;3.23;2.73;;;17.40;64.60;;;;;;10390126;28;20216;-68
2022/01/11 23:37:49;;;;;;;3.20;2.80;;;17.40;64.50;;;;;;10391895;28;20221;-67
2022/01/11 23:43:33;;;;;;;3.30;2.63;;;17.40;64.50;;;;;;10395927;28;20731;-67
2022/01/11 23:48:56;;;;;;;3.83;3.07;;;17.40;64.50;;;;;;10399958;28;20734;-66
2022/01/11 23:54:19;;;;;;;2.70;2.50;;;17.40;64.50;;;;;;10390305;28;20696;-66
2022/01/11 23:59:43;;;;;;;3.50;2.70;;;17.40;64.50;;;;;;10391143;28;20201;-69
